sensor_id;sensor_type;location;lat;lon;timestamp;temperature;humidity
5802;DHT22;2927;49.366;8.530;2023-11-22T00:00:10;6.50;1.00
5802;DHT22;2927;49.366;8.530;2023-11-22T00:02:36;6.40;1.00
5802;DHT22;2927;49.366;8.530;2023-11-22T00:05:03;6.20;1.00
5802;DHT22;2927;49.366;8.530;2023-11-22T00:07:30;6.20;1.00
5802;DHT22;2927;49.366;8.530;2023-11-22T00:09:56;6.10;1.00
5802;DHT22;2927;49.366;8.530;2023-11-22T00:12:22;6.10;1.00
5802;DHT22;2927;49.366;8.530;2023-11-22T00:14:48;6.00;1.00
5802;DHT22;2927;49.366;8.530;2023-11-22T00:17:14;5.90;1.00
5802;DHT22;2927;49.366;8.530;2023-11-22T00:19:39;5.80;2.50
5802;DHT22;2927;49.366;8.530;2023-11-22T00:22:05;5.80;59.90
5802;DHT22;2927;49.366;8.530;2023-11-22T00:24:38;5.70;99.90
5802;DHT22;2927;49.366;8.530;2023-11-22T00:27:04;5.60;99.90
5802;DHT22;2927;49.366;8.530;2023-11-22T00:29:30;5.50;99.90
5802;DHT22;2927;49.366;8.530;2023-11-22T00:31:55;5.50;99.90
5802;DHT22;2927;49.366;8.530;2023-11-22T00:34:21;5.50;99.90
5802;DHT22;2927;49.366;8.530;2023-11-22T00:36:48;5.40;99.90
5802;DHT22;2927;49.366;8.530;2023-11-22T00:39:14;5.40;99.90
5802;DHT22;2927;49.366;8.530;2023-11-22T00:41:40;5.40;99.90
5802;DHT22;2927;49.366;8.530;2023-11-22T00:44:05;5.40;99.90
5802;DHT22;2927;49.366;8.530;2023-11-22T00:46:32;5.30;99.90
5802;DHT22;2927;49.366;8.530;2023-11-22T00:48:57;5.30;99.90
5802;DHT22;2927;49.366;8.530;2023-11-22T00:51:23;5.20;99.90
5802;DHT22;2927;49.366;8.530;2023-11-22T00:53:49;5.20;99.90
5802;DHT22;2927;49.366;8.530;2023-11-22T00:56:15;5.10;99.90
5802;DHT22;2927;49.366;8.530;2023-11-22T00:58:41;5.10;99.90
5802;DHT22;2927;49.366;8.530;2023-11-22T01:01:06;5.10;99.90
5802;DHT22;2927;49.366;8.530;2023-11-22T01:03:32;5.00;99.90
5802;DHT22;2927;49.366;8.530;2023-11-22T01:05:58;5.00;99.90
5802;DHT22;2927;49.366;8.530;2023-11-22T01:08:23;5.00;99.90
5802;DHT22;2927;49.366;8.530;2023-11-22T01:10:49;5.10;99.90
5802;DHT22;2927;49.366;8.530;2023-11-22T01:13:15;5.10;99.90
5802;DHT22;2927;49.366;8.530;2023-11-22T01:15:41;5.10;99.90
5802;DHT22;2927;49.366;8.530;2023-11-22T01:18:07;5.10;99.90
5802;DHT22;2927;49.366;8.530;2023-11-22T01:20:33;5.10;99.90
5802;DHT22;2927;49.366;8.530;2023-11-22T01:22:58;5.00;99.90
5802;DHT22;2927;49.366;8.530;2023-11-22T01:25:24;5.00;99.90
5802;DHT22;2927;49.366;8.530;2023-11-22T01:27:50;4.90;99.90
5802;DHT22;2927;49.366;8.530;2023-11-22T01:30:15;4.80;99.90
5802;DHT22;2927;49.366;8.530;2023-11-22T01:32:41;4.70;99.90
5802;DHT22;2927;49.366;8.530;2023-11-22T01:35:07;4.70;99.90
5802;DHT22;2927;49.366;8.530;2023-11-22T01:37:33;4.60;99.90
5802;DHT22;2927;49.366;8.530;2023-11-22T01:39:58;4.50;99.90
5802;DHT22;2927;49.366;8.530;2023-11-22T01:42:24;4.40;99.90
5802;DHT22;2927;49.366;8.530;2023-11-22T01:44:51;4.40;99.90
5802;DHT22;2927;49.366;8.530;2023-11-22T01:47:18;4.40;99.90
5802;DHT22;2927;49.366;8.530;2023-11-22T01:49:43;4.30;99.90
5802;DHT22;2927;49.366;8.530;2023-11-22T01:52:09;4.20;99.90
5802;DHT22;2927;49.366;8.530;2023-11-22T01:54:36;4.20;99.90
5802;DHT22;2927;49.366;8.530;2023-11-22T01:57:02;4.20;99.90
5802;DHT22;2927;49.366;8.530;2023-11-22T01:59:29;4.10;99.90
5802;DHT22;2927;49.366;8.530;2023-11-22T02:01:57;4.10;99.90
5802;DHT22;2927;49.366;8.530;2023-11-22T02:04:23;4.00;99.90
5802;DHT22;2927;49.366;8.530;2023-11-22T02:06:48;4.00;99.90
5802;DHT22;2927;49.366;8.530;2023-11-22T02:09:15;3.90;99.90
5802;DHT22;2927;49.366;8.530;2023-11-22T02:11:41;3.90;99.90
5802;DHT22;2927;49.366;8.530;2023-11-22T02:14:15;3.90;99.90
5802;DHT22;2927;49.366;8.530;2023-11-22T02:16:41;3.90;99.90
5802;DHT22;2927;49.366;8.530;2023-11-22T02:19:14;3.80;99.90
5802;DHT22;2927;49.366;8.530;2023-11-22T02:21:40;3.80;99.90
5802;DHT22;2927;49.366;8.530;2023-11-22T02:24:06;3.80;99.90
5802;DHT22;2927;49.366;8.530;2023-11-22T02:26:32;3.80;99.90
5802;DHT22;2927;49.366;8.530;2023-11-22T02:28:59;3.80;99.90
5802;DHT22;2927;49.366;8.530;2023-11-22T02:31:25;3.70;99.90
5802;DHT22;2927;49.366;8.530;2023-11-22T02:33:51;3.70;99.90
5802;DHT22;2927;49.366;8.530;2023-11-22T02:36:16;3.60;99.90
5802;DHT22;2927;49.366;8.530;2023-11-22T02:38:42;3.60;99.90
5802;DHT22;2927;49.366;8.530;2023-11-22T02:41:09;3.50;99.90
5802;DHT22;2927;49.366;8.530;2023-11-22T02:43:35;3.50;99.90
5802;DHT22;2927;49.366;8.530;2023-11-22T02:46:01;3.50;99.90
5802;DHT22;2927;49.366;8.530;2023-11-22T02:48:26;3.50;99.90
5802;DHT22;2927;49.366;8.530;2023-11-22T02:50:52;3.40;99.90
5802;DHT22;2927;49.366;8.530;2023-11-22T02:53:19;3.40;99.90
5802;DHT22;2927;49.366;8.530;2023-11-22T02:55:45;3.40;99.90
5802;DHT22;2927;49.366;8.530;2023-11-22T02:58:10;3.30;99.90
5802;DHT22;2927;49.366;8.530;2023-11-22T03:00:39;3.20;99.90
5802;DHT22;2927;49.366;8.530;2023-11-22T03:03:05;3.20;99.90
5802;DHT22;2927;49.366;8.530;2023-11-22T03:05:35;3.20;99.90
5802;DHT22;2927;49.366;8.530;2023-11-22T03:08:03;3.10;99.90
5802;DHT22;2927;49.366;8.530;2023-11-22T03:10:28;3.10;76.30
5802;DHT22;2927;49.366;8.530;2023-11-22T03:12:55;3.10;16.80
5802;DHT22;2927;49.366;8.530;2023-11-22T03:15:21;3.10;1.00
5802;DHT22;2927;49.366;8.530;2023-11-22T03:17:46;3.10;1.00
5802;DHT22;2927;49.366;8.530;2023-11-22T03:20:14;3.00;1.00
5802;DHT22;2927;49.366;8.530;2023-11-22T03:22:41;3.00;1.00
5802;DHT22;2927;49.366;8.530;2023-11-22T03:25:10;2.90;1.00
5802;DHT22;2927;49.366;8.530;2023-11-22T03:27:36;2.90;1.00
5802;DHT22;2927;49.366;8.530;2023-11-22T03:30:03;2.80;1.00
5802;DHT22;2927;49.366;8.530;2023-11-22T03:32:29;2.80;1.00
5802;DHT22;2927;49.366;8.530;2023-11-22T03:34:55;2.80;1.00
5802;DHT22;2927;49.366;8.530;2023-11-22T03:37:20;2.80;1.00
5802;DHT22;2927;49.366;8.530;2023-11-22T03:39:46;2.70;1.00
5802;DHT22;2927;49.366;8.530;2023-11-22T03:42:17;2.70;1.00
5802;DHT22;2927;49.366;8.530;2023-11-22T03:44:42;2.70;1.00
5802;DHT22;2927;49.366;8.530;2023-11-22T03:47:10;2.70;1.00
5802;DHT22;2927;49.366;8.530;2023-11-22T03:49:36;2.70;1.00
5802;DHT22;2927;49.366;8.530;2023-11-22T03:52:02;2.60;1.00
5802;DHT22;2927;49.366;8.530;2023-11-22T03:54:27;2.60;1.00
5802;DHT22;2927;49.366;8.530;2023-11-22T03:56:53;2.60;1.00
5802;DHT22;2927;49.366;8.530;2023-11-22T03:59:19;2.70;1.00
5802;DHT22;2927;49.366;8.530;2023-11-22T04:01:44;2.60;1.00
5802;DHT22;2927;49.366;8.530;2023-11-22T04:04:10;2.60;1.00
5802;DHT22;2927;49.366;8.530;2023-11-22T04:06:36;2.50;4.60
5802;DHT22;2927;49.366;8.530;2023-11-22T04:09:02;2.40;73.60
5802;DHT22;2927;49.366;8.530;2023-11-22T04:11:28;2.40;99.90
5802;DHT22;2927;49.366;8.530;2023-11-22T04:13:55;2.40;99.90
5802;DHT22;2927;49.366;8.530;2023-11-22T04:16:20;2.40;99.90
5802;DHT22;2927;49.366;8.530;2023-11-22T04:18:46;2.30;99.90
5802;DHT22;2927;49.366;8.530;2023-11-22T04:21:12;2.30;99.90
5802;DHT22;2927;49.366;8.530;2023-11-22T04:23:37;2.30;99.90
5802;DHT22;2927;49.366;8.530;2023-11-22T04:26:03;2.30;99.90
5802;DHT22;2927;49.366;8.530;2023-11-22T04:28:29;2.40;99.90
5802;DHT22;2927;49.366;8.530;2023-11-22T04:30:55;2.30;99.90
5802;DHT22;2927;49.366;8.530;2023-11-22T04:33:22;2.30;99.90
5802;DHT22;2927;49.366;8.530;2023-11-22T04:35:51;2.30;99.90
5802;DHT22;2927;49.366;8.530;2023-11-22T04:38:16;2.30;99.90
5802;DHT22;2927;49.366;8.530;2023-11-22T04:40:43;2.30;99.90
5802;DHT22;2927;49.366;8.530;2023-11-22T04:43:09;2.20;99.90
5802;DHT22;2927;49.366;8.530;2023-11-22T04:45:34;2.20;99.90
5802;DHT22;2927;49.366;8.530;2023-11-22T04:48:00;2.20;99.90
5802;DHT22;2927;49.366;8.530;2023-11-22T04:50:25;2.10;99.90
5802;DHT22;2927;49.366;8.530;2023-11-22T04:52:51;2.10;99.90
5802;DHT22;2927;49.366;8.530;2023-11-22T04:55:17;2.10;99.90
5802;DHT22;2927;49.366;8.530;2023-11-22T04:57:45;2.10;99.90
5802;DHT22;2927;49.366;8.530;2023-11-22T05:00:11;2.10;99.90
5802;DHT22;2927;49.366;8.530;2023-11-22T05:02:37;2.10;99.90
5802;DHT22;2927;49.366;8.530;2023-11-22T05:05:03;2.10;99.90
5802;DHT22;2927;49.366;8.530;2023-11-22T05:07:29;2.10;99.90
5802;DHT22;2927;49.366;8.530;2023-11-22T05:09:55;2.00;99.90
5802;DHT22;2927;49.366;8.530;2023-11-22T05:12:20;2.00;99.90
5802;DHT22;2927;49.366;8.530;2023-11-22T05:14:46;1.90;99.90
5802;DHT22;2927;49.366;8.530;2023-11-22T05:17:12;1.90;99.90
5802;DHT22;2927;49.366;8.530;2023-11-22T05:19:38;1.80;99.90
5802;DHT22;2927;49.366;8.530;2023-11-22T05:22:03;1.80;99.90
5802;DHT22;2927;49.366;8.530;2023-11-22T05:24:29;1.80;99.90
5802;DHT22;2927;49.366;8.530;2023-11-22T05:26:55;1.70;99.90
5802;DHT22;2927;49.366;8.530;2023-11-22T05:29:20;1.70;99.90
5802;DHT22;2927;49.366;8.530;2023-11-22T05:31:47;1.60;99.90
5802;DHT22;2927;49.366;8.530;2023-11-22T05:34:12;1.60;99.90
5802;DHT22;2927;49.366;8.530;2023-11-22T05:36:38;1.60;99.90
5802;DHT22;2927;49.366;8.530;2023-11-22T05:39:04;1.60;99.90
5802;DHT22;2927;49.366;8.530;2023-11-22T05:41:29;1.60;99.90
5802;DHT22;2927;49.366;8.530;2023-11-22T05:43:55;1.60;99.90
5802;DHT22;2927;49.366;8.530;2023-11-22T05:46:22;1.60;99.90
5802;DHT22;2927;49.366;8.530;2023-11-22T05:48:53;1.50;99.90
5802;DHT22;2927;49.366;8.530;2023-11-22T05:51:20;1.50;99.90
5802;DHT22;2927;49.366;8.530;2023-11-22T05:53:46;1.50;99.90
5802;DHT22;2927;49.366;8.530;2023-11-22T05:56:11;1.40;99.90
5802;DHT22;2927;49.366;8.530;2023-11-22T05:58:38;1.40;99.90
5802;DHT22;2927;49.366;8.530;2023-11-22T06:01:07;1.40;99.90
5802;DHT22;2927;49.366;8.530;2023-11-22T06:03:34;1.40;99.90
5802;DHT22;2927;49.366;8.530;2023-11-22T06:06:00;1.40;86.00
5802;DHT22;2927;49.366;8.530;2023-11-22T06:08:26;1.40;5.40
5802;DHT22;2927;49.366;8.530;2023-11-22T06:10:52;1.40;1.00
5802;DHT22;2927;49.366;8.530;2023-11-22T06:13:22;1.40;1.00
5802;DHT22;2927;49.366;8.530;2023-11-22T06:15:48;1.40;1.00
5802;DHT22;2927;49.366;8.530;2023-11-22T06:18:13;1.40;1.00
5802;DHT22;2927;49.366;8.530;2023-11-22T06:20:41;1.40;1.00
5802;DHT22;2927;49.366;8.530;2023-11-22T06:23:08;1.40;1.00
5802;DHT22;2927;49.366;8.530;2023-11-22T06:25:34;1.30;1.00
5802;DHT22;2927;49.366;8.530;2023-11-22T06:28:02;1.20;1.00
5802;DHT22;2927;49.366;8.530;2023-11-22T06:30:28;1.20;1.00
5802;DHT22;2927;49.366;8.530;2023-11-22T06:32:53;1.10;1.00
5802;DHT22;2927;49.366;8.530;2023-11-22T06:35:19;1.10;1.00
5802;DHT22;2927;49.366;8.530;2023-11-22T06:37:45;1.10;1.00
5802;DHT22;2927;49.366;8.530;2023-11-22T06:40:13;1.00;1.00
5802;DHT22;2927;49.366;8.530;2023-11-22T06:42:40;1.00;1.00
5802;DHT22;2927;49.366;8.530;2023-11-22T06:45:07;1.10;1.00
5802;DHT22;2927;49.366;8.530;2023-11-22T06:47:35;1.10;1.00
5802;DHT22;2927;49.366;8.530;2023-11-22T06:50:02;1.20;1.00
5802;DHT22;2927;49.366;8.530;2023-11-22T06:52:29;1.20;1.00
5802;DHT22;2927;49.366;8.530;2023-11-22T06:54:55;1.20;99.90
5802;DHT22;2927;49.366;8.530;2023-11-22T06:57:20;1.20;1.00
5802;DHT22;2927;49.366;8.530;2023-11-22T06:59:53;1.30;99.90
5802;DHT22;2927;49.366;8.530;2023-11-22T07:02:19;1.20;1.00
5802;DHT22;2927;49.366;8.530;2023-11-22T07:04:44;1.30;1.00
5802;DHT22;2927;49.366;8.530;2023-11-22T07:07:10;1.20;1.00
5802;DHT22;2927;49.366;8.530;2023-11-22T07:09:36;1.30;76.80
5802;DHT22;2927;49.366;8.530;2023-11-22T07:12:02;1.30;99.90
5802;DHT22;2927;49.366;8.530;2023-11-22T07:14:31;1.30;99.90
5802;DHT22;2927;49.366;8.530;2023-11-22T07:16:57;1.30;1.00
5802;DHT22;2927;49.366;8.530;2023-11-22T07:19:23;1.30;1.00
5802;DHT22;2927;49.366;8.530;2023-11-22T07:21:49;1.70;1.00
5802;DHT22;2927;49.366;8.530;2023-11-22T07:24:14;3.20;1.00
5802;DHT22;2927;49.366;8.530;2023-11-22T07:26:41;4.40;16.40
5802;DHT22;2927;49.366;8.530;2023-11-22T07:29:07;5.40;99.90
5802;DHT22;2927;49.366;8.530;2023-11-22T07:31:33;6.40;99.90
5802;DHT22;2927;49.366;8.530;2023-11-22T07:33:59;6.90;99.90
5802;DHT22;2927;49.366;8.530;2023-11-22T07:36:27;7.30;99.90
5802;DHT22;2927;49.366;8.530;2023-11-22T07:38:54;7.60;99.90
5802;DHT22;2927;49.366;8.530;2023-11-22T07:41:19;8.00;99.90
5802;DHT22;2927;49.366;8.530;2023-11-22T07:43:46;7.80;99.90
5802;DHT22;2927;49.366;8.530;2023-11-22T07:46:12;8.00;99.90
5802;DHT22;2927;49.366;8.530;2023-11-22T07:48:42;8.10;99.90
5802;DHT22;2927;49.366;8.530;2023-11-22T07:51:08;8.60;99.90
5802;DHT22;2927;49.366;8.530;2023-11-22T07:53:34;8.60;99.90
5802;DHT22;2927;49.366;8.530;2023-11-22T07:56:01;9.10;99.70
5802;DHT22;2927;49.366;8.530;2023-11-22T07:58:33;9.20;99.90
5802;DHT22;2927;49.366;8.530;2023-11-22T08:00:59;9.80;96.60
5802;DHT22;2927;49.366;8.530;2023-11-22T08:03:25;10.00;81.70
5802;DHT22;2927;49.366;8.530;2023-11-22T08:05:54;10.10;44.50
5802;DHT22;2927;49.366;8.530;2023-11-22T08:08:21;10.30;43.70
5802;DHT22;2927;49.366;8.530;2023-11-22T08:10:48;10.60;29.60
5802;DHT22;2927;49.366;8.530;2023-11-22T08:13:17;10.50;19.80
5802;DHT22;2927;49.366;8.530;2023-11-22T08:15:45;10.70;15.60
5802;DHT22;2927;49.366;8.530;2023-11-22T08:18:12;10.70;16.60
5802;DHT22;2927;49.366;8.530;2023-11-22T08:20:37;10.50;9.40
5802;DHT22;2927;49.366;8.530;2023-11-22T08:23:03;10.80;4.40
5802;DHT22;2927;49.366;8.530;2023-11-22T08:25:31;10.90;6.30
5802;DHT22;2927;49.366;8.530;2023-11-22T08:27:57;10.40;1.00
5802;DHT22;2927;49.366;8.530;2023-11-22T08:30:22;10.50;3.00
5802;DHT22;2927;49.366;8.530;2023-11-22T08:32:48;10.60;10.00
5802;DHT22;2927;49.366;8.530;2023-11-22T08:35:19;10.90;1.60
5802;DHT22;2927;49.366;8.530;2023-11-22T08:37:47;11.30;1.00
5802;DHT22;2927;49.366;8.530;2023-11-22T08:40:13;11.30;1.00
5802;DHT22;2927;49.366;8.530;2023-11-22T08:42:41;11.50;1.00
5802;DHT22;2927;49.366;8.530;2023-11-22T08:45:08;11.20;1.00
5802;DHT22;2927;49.366;8.530;2023-11-22T08:47:34;11.00;1.00
5802;DHT22;2927;49.366;8.530;2023-11-22T08:50:00;11.20;3.60
5802;DHT22;2927;49.366;8.530;2023-11-22T08:52:29;11.90;1.00
5802;DHT22;2927;49.366;8.530;2023-11-22T08:54:56;12.40;1.00
5802;DHT22;2927;49.366;8.530;2023-11-22T08:57:22;12.20;1.00
5802;DHT22;2927;49.366;8.530;2023-11-22T08:59:48;11.50;1.00
5802;DHT22;2927;49.366;8.530;2023-11-22T09:02:14;11.50;1.00
5802;DHT22;2927;49.366;8.530;2023-11-22T09:04:40;12.10;1.00
5802;DHT22;2927;49.366;8.530;2023-11-22T09:07:07;11.80;1.00
5802;DHT22;2927;49.366;8.530;2023-11-22T09:09:33;11.60;1.00
5802;DHT22;2927;49.366;8.530;2023-11-22T09:12:00;11.30;1.00
5802;DHT22;2927;49.366;8.530;2023-11-22T09:14:26;9.80;1.00
5802;DHT22;2927;49.366;8.530;2023-11-22T09:16:52;8.10;1.00
5802;DHT22;2927;49.366;8.530;2023-11-22T09:19:24;7.20;1.00
5802;DHT22;2927;49.366;8.530;2023-11-22T09:21:50;6.60;16.60
5802;DHT22;2927;49.366;8.530;2023-11-22T09:24:16;6.10;63.50
5802;DHT22;2927;49.366;8.530;2023-11-22T09:26:42;5.80;97.30
5802;DHT22;2927;49.366;8.530;2023-11-22T09:29:09;5.40;99.90
5802;DHT22;2927;49.366;8.530;2023-11-22T09:31:39;5.30;99.90
5802;DHT22;2927;49.366;8.530;2023-11-22T09:34:04;5.00;99.90
5802;DHT22;2927;49.366;8.530;2023-11-22T09:36:30;4.90;99.90
5802;DHT22;2927;49.366;8.530;2023-11-22T09:38:57;4.80;99.90
5802;DHT22;2927;49.366;8.530;2023-11-22T09:41:23;4.80;99.90
5802;DHT22;2927;49.366;8.530;2023-11-22T09:43:50;4.60;99.90
5802;DHT22;2927;49.366;8.530;2023-11-22T09:46:17;4.40;99.90
5802;DHT22;2927;49.366;8.530;2023-11-22T09:48:47;4.30;99.90
5802;DHT22;2927;49.366;8.530;2023-11-22T09:51:26;4.20;99.90
5802;DHT22;2927;49.366;8.530;2023-11-22T09:53:59;4.30;99.90
5802;DHT22;2927;49.366;8.530;2023-11-22T09:56:26;4.40;99.90
5802;DHT22;2927;49.366;8.530;2023-11-22T09:58:58;4.20;99.90
5802;DHT22;2927;49.366;8.530;2023-11-22T10:01:27;4.30;99.90
5802;DHT22;2927;49.366;8.530;2023-11-22T10:04:13;4.20;99.90
5802;DHT22;2927;49.366;8.530;2023-11-22T10:06:38;4.30;99.90
5802;DHT22;2927;49.366;8.530;2023-11-22T10:09:06;4.30;99.90
5802;DHT22;2927;49.366;8.530;2023-11-22T10:11:37;4.30;99.90
5802;DHT22;2927;49.366;8.530;2023-11-22T10:14:09;4.20;99.90
5802;DHT22;2927;49.366;8.530;2023-11-22T10:16:34;4.30;99.90
5802;DHT22;2927;49.366;8.530;2023-11-22T10:19:00;4.40;99.90
5802;DHT22;2927;49.366;8.530;2023-11-22T10:21:27;4.60;99.90
5802;DHT22;2927;49.366;8.530;2023-11-22T10:23:56;4.50;99.90
5802;DHT22;2927;49.366;8.530;2023-11-22T10:26:23;4.80;99.90
5802;DHT22;2927;49.366;8.530;2023-11-22T10:28:53;4.90;99.90
5802;DHT22;2927;49.366;8.530;2023-11-22T10:31:20;5.10;99.90
5802;DHT22;2927;49.366;8.530;2023-11-22T10:33:47;5.10;99.90
5802;DHT22;2927;49.366;8.530;2023-11-22T10:36:14;5.00;99.90
5802;DHT22;2927;49.366;8.530;2023-11-22T10:38:41;5.00;99.90
5802;DHT22;2927;49.366;8.530;2023-11-22T10:41:10;5.00;99.90
5802;DHT22;2927;49.366;8.530;2023-11-22T10:43:37;4.90;99.90
5802;DHT22;2927;49.366;8.530;2023-11-22T10:46:03;5.10;99.90
5802;DHT22;2927;49.366;8.530;2023-11-22T10:48:30;5.20;99.90
5802;DHT22;2927;49.366;8.530;2023-11-22T10:51:00;5.10;99.90
5802;DHT22;2927;49.366;8.530;2023-11-22T10:53:35;5.10;99.90
5802;DHT22;2927;49.366;8.530;2023-11-22T10:56:07;5.10;99.90
5802;DHT22;2927;49.366;8.530;2023-11-22T10:59:09;5.00;99.90
5802;DHT22;2927;49.366;8.530;2023-11-22T11:01:35;4.90;99.90
5802;DHT22;2927;49.366;8.530;2023-11-22T11:04:03;5.00;99.90
5802;DHT22;2927;49.366;8.530;2023-11-22T11:06:34;5.10;99.90
5802;DHT22;2927;49.366;8.530;2023-11-22T11:09:03;5.20;99.90
5802;DHT22;2927;49.366;8.530;2023-11-22T11:11:37;5.20;99.90
5802;DHT22;2927;49.366;8.530;2023-11-22T11:14:05;5.20;99.90
5802;DHT22;2927;49.366;8.530;2023-11-22T11:16:34;5.20;99.90
5802;DHT22;2927;49.366;8.530;2023-11-22T11:19:04;5.10;99.90
5802;DHT22;2927;49.366;8.530;2023-11-22T11:21:31;5.10;99.90
5802;DHT22;2927;49.366;8.530;2023-11-22T11:23:58;5.10;99.90
5802;DHT22;2927;49.366;8.530;2023-11-22T11:26:28;5.10;99.90
5802;DHT22;2927;49.366;8.530;2023-11-22T11:28:54;5.10;99.90
5802;DHT22;2927;49.366;8.530;2023-11-22T11:31:23;5.10;99.90
5802;DHT22;2927;49.366;8.530;2023-11-22T11:36:25;5.10;99.90
5802;DHT22;2927;49.366;8.530;2023-11-22T11:38:52;5.00;99.90
5802;DHT22;2927;49.366;8.530;2023-11-22T11:41:28;4.90;99.90
5802;DHT22;2927;49.366;8.530;2023-11-22T11:43:56;5.00;99.90
5802;DHT22;2927;49.366;8.530;2023-11-22T11:46:23;5.00;99.90
5802;DHT22;2927;49.366;8.530;2023-11-22T11:48:51;5.20;99.90
5802;DHT22;2927;49.366;8.530;2023-11-22T11:51:19;5.30;99.90
5802;DHT22;2927;49.366;8.530;2023-11-22T11:53:45;5.40;99.90
5802;DHT22;2927;49.366;8.530;2023-11-22T11:56:11;5.40;99.90
5802;DHT22;2927;49.366;8.530;2023-11-22T11:58:38;5.40;99.90
5802;DHT22;2927;49.366;8.530;2023-11-22T12:01:07;5.40;99.90
5802;DHT22;2927;49.366;8.530;2023-11-22T12:03:33;5.40;99.90
5802;DHT22;2927;49.366;8.530;2023-11-22T12:06:01;5.50;99.90
5802;DHT22;2927;49.366;8.530;2023-11-22T12:08:27;5.70;99.90
5802;DHT22;2927;49.366;8.530;2023-11-22T12:10:56;5.40;99.90
5802;DHT22;2927;49.366;8.530;2023-11-22T12:13:24;5.30;99.90
5802;DHT22;2927;49.366;8.530;2023-11-22T12:15:51;5.10;99.90
5802;DHT22;2927;49.366;8.530;2023-11-22T12:18:19;5.20;99.90
5802;DHT22;2927;49.366;8.530;2023-11-22T12:20:57;5.30;99.90
5802;DHT22;2927;49.366;8.530;2023-11-22T12:23:24;5.30;99.90
5802;DHT22;2927;49.366;8.530;2023-11-22T12:25:57;5.40;99.90
5802;DHT22;2927;49.366;8.530;2023-11-22T12:28:27;5.40;99.90
5802;DHT22;2927;49.366;8.530;2023-11-22T12:30:52;5.40;99.90
5802;DHT22;2927;49.366;8.530;2023-11-22T12:33:19;5.50;99.90
5802;DHT22;2927;49.366;8.530;2023-11-22T12:35:45;5.50;99.90
5802;DHT22;2927;49.366;8.530;2023-11-22T12:38:11;5.40;99.90
5802;DHT22;2927;49.366;8.530;2023-11-22T12:40:37;5.30;99.90
5802;DHT22;2927;49.366;8.530;2023-11-22T12:43:03;5.00;99.90
5802;DHT22;2927;49.366;8.530;2023-11-22T12:45:30;5.10;99.90
5802;DHT22;2927;49.366;8.530;2023-11-22T12:47:59;5.10;99.90
5802;DHT22;2927;49.366;8.530;2023-11-22T12:50:36;5.20;99.90
5802;DHT22;2927;49.366;8.530;2023-11-22T12:53:15;5.30;99.90
5802;DHT22;2927;49.366;8.530;2023-11-22T12:55:45;5.20;99.90
5802;DHT22;2927;49.366;8.530;2023-11-22T12:58:12;5.20;99.90
5802;DHT22;2927;49.366;8.530;2023-11-22T13:00:39;5.20;99.90
5802;DHT22;2927;49.366;8.530;2023-11-22T13:03:06;5.30;99.90
5802;DHT22;2927;49.366;8.530;2023-11-22T13:05:33;5.50;99.90
5802;DHT22;2927;49.366;8.530;2023-11-22T13:07:58;5.50;99.90
5802;DHT22;2927;49.366;8.530;2023-11-22T13:10:24;5.50;99.90
5802;DHT22;2927;49.366;8.530;2023-11-22T13:12:53;5.40;99.90
5802;DHT22;2927;49.366;8.530;2023-11-22T13:15:23;5.20;99.90
5802;DHT22;2927;49.366;8.530;2023-11-22T13:17:50;5.20;99.90
5802;DHT22;2927;49.366;8.530;2023-11-22T13:20:16;5.10;99.90
5802;DHT22;2927;49.366;8.530;2023-11-22T13:22:45;5.00;99.90
5802;DHT22;2927;49.366;8.530;2023-11-22T13:25:12;5.00;99.90
5802;DHT22;2927;49.366;8.530;2023-11-22T13:27:47;5.00;99.90
5802;DHT22;2927;49.366;8.530;2023-11-22T13:30:14;5.00;99.90
5802;DHT22;2927;49.366;8.530;2023-11-22T13:32:40;5.00;99.90
5802;DHT22;2927;49.366;8.530;2023-11-22T13:35:08;4.90;99.90
5802;DHT22;2927;49.366;8.530;2023-11-22T13:37:41;4.80;99.90
5802;DHT22;2927;49.366;8.530;2023-11-22T13:40:10;4.80;99.90
5802;DHT22;2927;49.366;8.530;2023-11-22T13:42:41;4.70;99.90
5802;DHT22;2927;49.366;8.530;2023-11-22T13:45:06;4.60;99.90
5802;DHT22;2927;49.366;8.530;2023-11-22T13:47:32;4.60;99.90
5802;DHT22;2927;49.366;8.530;2023-11-22T13:49:59;4.60;99.90
5802;DHT22;2927;49.366;8.530;2023-11-22T13:52:24;4.60;99.90
5802;DHT22;2927;49.366;8.530;2023-11-22T13:54:50;4.60;99.90
5802;DHT22;2927;49.366;8.530;2023-11-22T13:57:17;4.60;99.90
5802;DHT22;2927;49.366;8.530;2023-11-22T13:59:42;4.70;99.90
5802;DHT22;2927;49.366;8.530;2023-11-22T14:02:08;4.60;99.90
5802;DHT22;2927;49.366;8.530;2023-11-22T14:04:34;4.60;99.90
5802;DHT22;2927;49.366;8.530;2023-11-22T14:06:59;4.60;99.90
5802;DHT22;2927;49.366;8.530;2023-11-22T14:09:26;4.60;99.90
5802;DHT22;2927;49.366;8.530;2023-11-22T14:11:52;4.60;99.90
5802;DHT22;2927;49.366;8.530;2023-11-22T14:14:18;4.60;99.90
5802;DHT22;2927;49.366;8.530;2023-11-22T14:16:44;4.50;99.90
5802;DHT22;2927;49.366;8.530;2023-11-22T14:19:11;4.40;99.90
5802;DHT22;2927;49.366;8.530;2023-11-22T14:21:38;4.50;99.90
5802;DHT22;2927;49.366;8.530;2023-11-22T14:24:04;4.40;99.90
5802;DHT22;2927;49.366;8.530;2023-11-22T14:26:30;4.40;99.90
5802;DHT22;2927;49.366;8.530;2023-11-22T14:28:55;4.40;99.90
5802;DHT22;2927;49.366;8.530;2023-11-22T14:31:21;4.40;99.90
5802;DHT22;2927;49.366;8.530;2023-11-22T14:33:47;4.40;99.90
5802;DHT22;2927;49.366;8.530;2023-11-22T14:36:12;4.40;99.90
5802;DHT22;2927;49.366;8.530;2023-11-22T14:38:41;4.30;99.90
5802;DHT22;2927;49.366;8.530;2023-11-22T14:41:07;4.40;99.90
5802;DHT22;2927;49.366;8.530;2023-11-22T14:43:35;4.40;99.90
5802;DHT22;2927;49.366;8.530;2023-11-22T14:46:01;4.40;99.90
5802;DHT22;2927;49.366;8.530;2023-11-22T14:48:26;4.50;99.90
5802;DHT22;2927;49.366;8.530;2023-11-22T14:50:52;4.40;99.90
5802;DHT22;2927;49.366;8.530;2023-11-22T14:53:18;4.40;99.90
5802;DHT22;2927;49.366;8.530;2023-11-22T14:55:46;4.40;99.90
5802;DHT22;2927;49.366;8.530;2023-11-22T14:58:12;4.30;99.90
5802;DHT22;2927;49.366;8.530;2023-11-22T15:00:38;4.30;99.90
5802;DHT22;2927;49.366;8.530;2023-11-22T15:03:04;4.30;99.90
5802;DHT22;2927;49.366;8.530;2023-11-22T15:05:29;4.20;99.90
5802;DHT22;2927;49.366;8.530;2023-11-22T15:07:55;4.20;99.90
5802;DHT22;2927;49.366;8.530;2023-11-22T15:10:21;4.20;99.90
5802;DHT22;2927;49.366;8.530;2023-11-22T15:12:47;4.20;99.90
5802;DHT22;2927;49.366;8.530;2023-11-22T15:15:13;4.20;99.90
5802;DHT22;2927;49.366;8.530;2023-11-22T15:17:39;4.20;99.90
5802;DHT22;2927;49.366;8.530;2023-11-22T15:20:06;4.10;99.90
5802;DHT22;2927;49.366;8.530;2023-11-22T15:22:35;4.00;99.90
5802;DHT22;2927;49.366;8.530;2023-11-22T15:25:01;4.00;99.90
5802;DHT22;2927;49.366;8.530;2023-11-22T15:27:26;3.90;99.90
5802;DHT22;2927;49.366;8.530;2023-11-22T15:29:52;3.90;99.90
5802;DHT22;2927;49.366;8.530;2023-11-22T15:32:17;3.80;99.90
5802;DHT22;2927;49.366;8.530;2023-11-22T15:34:43;3.80;99.90
5802;DHT22;2927;49.366;8.530;2023-11-22T15:37:08;3.80;99.90
5802;DHT22;2927;49.366;8.530;2023-11-22T15:39:36;3.70;99.90
5802;DHT22;2927;49.366;8.530;2023-11-22T15:42:02;3.70;99.90
5802;DHT22;2927;49.366;8.530;2023-11-22T15:44:31;3.70;99.90
5802;DHT22;2927;49.366;8.530;2023-11-22T15:46:57;3.70;99.90
5802;DHT22;2927;49.366;8.530;2023-11-22T15:49:22;3.70;99.90
5802;DHT22;2927;49.366;8.530;2023-11-22T15:51:48;3.60;99.90
5802;DHT22;2927;49.366;8.530;2023-11-22T15:54:13;3.60;99.90
5802;DHT22;2927;49.366;8.530;2023-11-22T15:56:39;3.60;99.90
5802;DHT22;2927;49.366;8.530;2023-11-22T15:59:05;3.60;99.90
5802;DHT22;2927;49.366;8.530;2023-11-22T16:01:31;3.60;1.00
5802;DHT22;2927;49.366;8.530;2023-11-22T16:03:56;3.50;1.00
5802;DHT22;2927;49.366;8.530;2023-11-22T16:06:22;3.50;1.00
5802;DHT22;2927;49.366;8.530;2023-11-22T16:08:53;3.50;1.00
5802;DHT22;2927;49.366;8.530;2023-11-22T16:11:19;3.40;1.00
5802;DHT22;2927;49.366;8.530;2023-11-22T16:13:44;3.40;1.00
5802;DHT22;2927;49.366;8.530;2023-11-22T16:16:10;3.40;1.00
5802;DHT22;2927;49.366;8.530;2023-11-22T16:18:37;3.40;99.90